Time;durP1;ratioP1;P1;durP2;ratioP2;P2;SDS_P1;SDS_P2;PMS_P1;PMS_P2;Temp;Humidity;BMP_temperature;BMP_pressure;BME280_temperature;BME280_humidity;BME280_pressure;Samples;Min_cycle;Max_cycle;Signal;HPM_P1;HPM_P2
2022/04/20 03:01:40;;;;;;;11.97;11.17;;;3.80;99.90;;;;;;5359672;23;20593;-76
2022/04/20 03:04:06;;;;;;;13.30;12.40;;;3.70;99.90;;;;;;4953688;29;20260;-76
2022/04/20 03:06:32;;;;;;;16.10;15.13;;;3.70;99.90;;;;;;4955310;28;20255;-75
2022/04/20 03:08:58;;;;;;;14.50;13.60;;;3.70;99.90;;;;;;4954068;28;20185;-76
2022/04/20 03:11:24;;;;;;;21.73;20.33;;;3.70;99.90;;;;;;4954636;28;20306;-76
2022/04/20 03:13:50;;;;;;;20.80;19.60;;;3.60;99.90;;;;;;4952595;28;20178;-76
2022/04/20 03:16:16;;;;;;;38.23;35.93;;;3.50;99.90;;;;;;4954648;28;20252;-75
2022/04/20 03:18:42;;;;;;;39.33;37.10;;;3.40;99.90;;;;;;4949434;28;20194;-74
2022/04/20 03:21:08;;;;;;;55.20;52.10;;;3.30;99.90;;;;;;4938893;28;20601;-75
2022/04/20 03:23:33;;;;;;;49.37;46.67;;;3.40;99.90;;;;;;4944370;29;20543;-75
2022/04/20 03:26:00;;;;;;;48.23;45.53;;;3.40;99.90;;;;;;4943111;29;20190;-75
2022/04/20 03:28:26;;;;;;;48.73;45.77;;;3.40;99.90;;;;;;4946543;29;20208;-75
2022/04/20 03:30:52;;;;;;;46.20;43.40;;;3.30;99.90;;;;;;4952135;28;20610;-75
2022/04/20 03:33:18;;;;;;;41.90;39.60;;;3.30;99.90;;;;;;4933971;29;20198;-75
2022/04/20 03:35:44;;;;;;;58.57;55.23;;;3.30;99.90;;;;;;4934299;29;20210;-80
2022/04/20 03:38:10;;;;;;;123.23;114.97;;;3.40;99.90;;;;;;4934243;29;20226;-70
2022/04/20 03:40:36;;;;;;;101.50;95.67;;;3.30;99.90;;;;;;4933427;29;20198;-70
2022/04/20 03:43:02;;;;;;;69.60;65.60;;;3.10;99.90;;;;;;4934855;29;20246;-71
2022/04/20 03:45:28;;;;;;;67.80;63.77;;;3.10;99.90;;;;;;4933744;29;20178;-71
2022/04/20 03:47:54;;;;;;;64.10;59.23;;;3.00;99.90;;;;;;4934243;29;20198;-71
2022/04/20 03:50:20;;;;;;;29.83;27.60;;;3.00;99.90;;;;;;4934578;29;20226;-70
2022/04/20 03:52:46;;;;;;;24.60;23.03;;;3.00;99.90;;;;;;4934664;29;20218;-70
2022/04/20 03:55:12;;;;;;;33.67;31.47;;;2.90;99.90;;;;;;4934566;29;20674;-71
2022/04/20 03:57:38;;;;;;;19.37;18.20;;;2.90;99.90;;;;;;4932669;29;20217;-71
2022/04/20 04:00:05;;;;;;;22.90;21.57;;;3.00;99.90;;;;;;4929978;29;20736;-71
2022/04/20 04:02:31;;;;;;;41.83;39.37;;;3.00;99.90;;;;;;4933553;29;20316;-71
2022/04/20 04:04:56;;;;;;;60.47;57.03;;;2.90;99.90;;;;;;4932522;29;20658;-71
2022/04/20 04:07:23;;;;;;;26.47;24.87;;;2.70;99.90;;;;;;4929460;29;20187;-70
2022/04/20 04:09:48;;;;;;;21.77;20.50;;;2.50;99.90;;;;;;4916985;29;20242;-70
2022/04/20 04:12:14;;;;;;;21.43;19.87;;;2.40;99.90;;;;;;4915227;29;20293;-71
2022/04/20 04:14:41;;;;;;;19.13;17.77;;;2.30;99.90;;;;;;4915072;29;20629;-70
2022/04/20 04:17:08;;;;;;;19.70;18.37;;;2.40;99.90;;;;;;4916741;29;20261;-71
2022/04/20 04:19:35;;;;;;;19.53;17.93;;;2.40;99.90;;;;;;4933839;29;20190;-71
2022/04/20 04:22:02;;;;;;;19.70;18.50;;;2.40;99.90;;;;;;4933800;29;20701;-70
2022/04/20 04:24:37;;;;;;;14.23;13.13;;;2.40;99.90;;;;;;4933869;29;20186;-71
2022/04/20 04:27:05;;;;;;;14.60;13.67;;;2.40;99.90;;;;;;4933865;29;20658;-70
2022/04/20 04:29:31;;;;;;;18.40;17.07;;;2.40;99.90;;;;;;4932460;29;20258;-70
2022/04/20 04:31:58;;;;;;;21.13;19.83;;;2.30;99.90;;;;;;4933824;29;20203;-71
2022/04/20 04:34:24;;;;;;;15.40;14.23;;;2.40;99.90;;;;;;4932699;29;20222;-71
2022/04/20 04:36:51;;;;;;;14.60;13.47;;;2.50;99.90;;;;;;4933289;29;20742;-71
2022/04/20 04:39:20;;;;;;;15.60;14.20;;;2.50;99.90;;;;;;4933900;29;20246;-71
2022/04/20 04:41:48;;;;;;;15.23;14.27;;;2.50;99.90;;;;;;4933697;29;20261;-71
2022/04/20 04:44:18;;;;;;;15.40;14.33;;;2.60;99.90;;;;;;4933658;29;20182;-70
2022/04/20 04:49:29;;;;;;;15.30;14.30;;;2.60;99.90;;;;;;4933809;29;20742;-70
2022/04/20 04:51:55;;;;;;;16.93;15.47;;;2.70;99.90;;;;;;4933564;29;20540;-70
2022/04/20 04:54:22;;;;;;;16.77;15.60;;;2.80;99.90;;;;;;4934287;29;20313;-70
2022/04/20 04:56:48;;;;;;;15.53;14.33;;;2.80;99.90;;;;;;4948297;29;20580;-71
2022/04/20 04:59:13;;;;;;;15.70;14.17;;;2.90;99.90;;;;;;4933719;29;20194;-71
2022/04/20 05:01:39;;;;;;;26.90;25.30;;;3.00;99.90;;;;;;4948231;29;20281;-70
2022/04/20 05:04:05;;;;;;;25.87;24.20;;;3.00;99.90;;;;;;4933713;29;20183;-71
2022/04/20 05:06:31;;;;;;;18.93;17.83;;;3.10;99.90;;;;;;4933173;29;20179;-71
2022/04/20 05:08:57;;;;;;;32.57;30.57;;;3.20;99.90;;;;;;4947854;29;20214;-71
2022/04/20 05:11:23;;;;;;;20.50;19.00;;;3.40;99.90;;;;;;4948201;29;20226;-71
2022/04/20 05:13:49;;;;;;;15.77;14.57;;;3.60;99.90;;;;;;4934349;29;20543;-70
2022/04/20 05:16:14;;;;;;;10.83;9.73;;;3.80;99.90;;;;;;4933944;29;20241;-72
2022/04/20 05:18:40;;;;;;;19.70;18.17;;;4.30;99.90;;;;;;4933018;29;20252;-70
2022/04/20 05:21:06;;;;;;;19.80;18.37;;;4.80;99.90;;;;;;4947848;29;20205;-71
2022/04/20 05:23:32;;;;;;;20.17;11.37;;;5.10;99.90;;;;;;4933444;29;20179;-71
2022/04/20 05:25:58;;;;;;;12.20;11.17;;;5.60;99.90;;;;;;4948379;29;20217;-72
2022/04/20 05:28:23;;;;;;;19.73;18.03;;;6.00;99.90;;;;;;4933234;29;20330;-71
2022/04/20 05:30:49;;;;;;;21.30;19.77;;;6.40;99.90;;;;;;4932386;29;20230;-71
2022/04/20 05:33:15;;;;;;;10.87;9.77;;;6.80;99.90;;;;;;4933472;29;20191;-71
2022/04/20 05:35:41;;;;;;;15.47;11.83;;;7.10;99.90;;;;;;4933423;29;20194;-71
2022/04/20 05:43:36;;;;;;;16.13;14.50;;;8.00;99.90;;;;;;4936817;29;20187;-71
2022/04/20 05:46:03;;;;;;;12.60;11.20;;;8.30;99.90;;;;;;4937283;29;20630;-71
2022/04/20 05:48:29;;;;;;;11.77;10.67;;;8.50;99.90;;;;;;4938216;29;20645;-71
2022/04/20 05:50:54;;;;;;;11.37;10.20;;;8.90;99.90;;;;;;4936739;29;20209;-72
2022/04/20 05:53:20;;;;;;;9.33;8.63;;;9.20;99.90;;;;;;4936654;29;20194;-73
2022/04/20 05:55:46;;;;;;;9.03;8.27;;;9.50;99.90;;;;;;4936773;29;20182;-72
2022/04/20 05:58:12;;;;;;;11.63;10.73;;;10.00;99.90;;;;;;4934943;29;20572;-72
2022/04/20 06:00:38;;;;;;;14.10;13.17;;;10.30;99.90;;;;;;4936717;29;20301;-72
2022/04/20 06:03:03;;;;;;;9.43;8.53;;;10.60;99.90;;;;;;4936800;29;20190;-71
2022/04/20 06:05:29;;;;;;;7.80;7.23;;;11.00;99.90;;;;;;4936450;29;20179;-72
2022/04/20 06:07:55;;;;;;;8.57;7.97;;;11.20;99.90;;;;;;4936052;29;20208;-72
2022/04/20 06:10:21;;;;;;;9.13;8.53;;;11.30;99.90;;;;;;4935533;29;20213;-72
2022/04/20 06:12:47;;;;;;;9.93;9.33;;;11.40;99.90;;;;;;4935021;29;20187;-72
2022/04/20 06:15:13;;;;;;;9.70;9.00;;;11.80;99.40;;;;;;4936365;29;20196;-72
2022/04/20 06:17:39;;;;;;;8.27;7.50;;;12.30;97.50;;;;;;4935973;29;20305;-72
2022/04/20 06:20:05;;;;;;;7.50;7.00;;;12.50;96.10;;;;;;4936368;29;20247;-71
2022/04/20 06:22:31;;;;;;;7.00;6.33;;;12.80;95.10;;;;;;4934580;29;20302;-70
2022/04/20 06:24:57;;;;;;;7.07;6.50;;;12.90;93.40;;;;;;4935138;29;20322;-70
2022/04/20 06:27:30;;;;;;;7.27;6.77;;;12.80;93.20;;;;;;4935729;29;20190;-70
2022/04/20 06:29:56;;;;;;;7.30;6.70;;;13.10;92.90;;;;;;4938221;29;20614;-72
2022/04/20 06:32:23;;;;;;;6.80;6.40;;;12.50;91.70;;;;;;4936027;29;20201;-71
2022/04/20 06:34:53;;;;;;;7.30;6.70;;;11.90;93.40;;;;;;4936692;29;20277;-71
2022/04/20 06:37:19;;;;;;;7.30;6.60;;;11.60;94.20;;;;;;4935492;29;20214;-73
2022/04/20 06:39:49;;;;;;;7.43;6.90;;;11.80;93.60;;;;;;4936132;29;20274;-71
2022/04/20 06:42:15;;;;;;;7.13;6.60;;;11.70;94.20;;;;;;4935890;29;20206;-72
2022/04/20 06:44:41;;;;;;;8.60;7.90;;;11.70;93.00;;;;;;4935845;29;20550;-71
2022/04/20 06:47:07;;;;;;;8.20;7.37;;;11.20;94.10;;;;;;4935987;29;20638;-71
2022/04/20 06:49:33;;;;;;;7.33;6.83;;;11.20;94.50;;;;;;4933677;29;20189;-72
2022/04/20 07:00:15;;;;;;;10.60;9.90;;;10.60;95.80;;;;;;4936105;29;20295;-71
2022/04/20 07:02:41;;;;;;;10.40;9.63;;;11.00;94.60;;;;;;4936882;29;20202;-72
2022/04/20 07:05:08;;;;;;;10.17;9.40;;;11.00;94.60;;;;;;4950850;29;20179;-71
2022/04/20 07:07:33;;;;;;;8.90;8.13;;;11.50;93.70;;;;;;4933783;29;20245;-72
2022/04/20 07:09:59;;;;;;;7.43;6.93;;;11.60;93.40;;;;;;4936005;29;20194;-72
2022/04/20 07:12:25;;;;;;;7.20;6.70;;;12.00;92.70;;;;;;4934614;29;20285;-72
2022/04/20 07:14:50;;;;;;;7.10;6.60;;;12.10;92.30;;;;;;4941613;29;20222;-71
2022/04/20 07:17:17;;;;;;;7.03;6.57;;;12.20;91.80;;;;;;4935043;29;20645;-72
2022/04/20 07:19:43;;;;;;;7.20;6.60;;;12.10;91.20;;;;;;4934118;29;20216;-71
2022/04/20 07:22:08;;;;;;;5.97;5.57;;;12.00;91.90;;;;;;4933910;29;20237;-71
2022/04/20 07:24:34;;;;;;;7.30;6.80;;;12.10;90.20;;;;;;4935656;29;20193;-70
2022/04/20 07:27:00;;;;;;;6.20;5.80;;;11.90;91.20;;;;;;4934886;29;20190;-70
2022/04/20 07:29:26;;;;;;;6.40;5.90;;;11.70;90.10;;;;;;4933969;29;20186;-71
2022/04/20 07:31:51;;;;;;;6.43;5.93;;;11.80;90.70;;;;;;4935113;29;20210;-70
2022/04/20 07:34:17;;;;;;;5.83;5.43;;;11.80;90.10;;;;;;4936409;29;20253;-71
2022/04/20 07:36:43;;;;;;;7.40;6.87;;;11.90;90.70;;;;;;4935530;29;20190;-71
2022/04/20 07:39:08;;;;;;;7.03;6.47;;;11.90;91.10;;;;;;4935093;29;20187;-70
2022/04/20 07:41:34;;;;;;;6.93;6.43;;;12.30;90.40;;;;;;4933837;29;20972;-71
2022/04/20 07:44:00;;;;;;;7.27;6.70;;;12.30;90.30;;;;;;4935054;29;20280;-69
2022/04/20 07:46:26;;;;;;;6.90;6.40;;;11.90;90.10;;;;;;4934917;29;20596;-70
2022/04/20 07:48:51;;;;;;;7.40;6.90;;;11.80;90.60;;;;;;4934490;29;20183;-69
2022/04/20 07:51:17;;;;;;;9.13;6.50;;;12.00;91.00;;;;;;4934700;29;20199;-69
2022/04/20 07:53:43;;;;;;;7.43;6.90;;;12.50;90.70;;;;;;4934748;29;20186;-70
2022/04/20 07:56:10;;;;;;;7.30;6.90;;;13.00;88.70;;;;;;4934541;29;20193;-70
2022/04/20 07:58:36;;;;;;;6.23;5.80;;;13.20;85.40;;;;;;4943678;29;20218;-70
2022/04/20 08:01:02;;;;;;;7.90;7.20;;;12.60;85.30;;;;;;4934328;29;20214;-70
2022/04/20 08:03:28;;;;;;;7.00;6.60;;;12.50;84.50;;;;;;4934636;29;20219;-70
2022/04/20 08:05:56;;;;;;;5.43;5.07;;;12.60;85.00;;;;;;4930760;29;20265;-70
2022/04/20 08:08:25;;;;;;;7.23;6.20;;;12.70;82.00;;;;;;4918523;29;20219;-70
2022/04/20 08:10:51;;;;;;;7.97;6.87;;;12.50;81.90;;;;;;4914156;29;20563;-70
2022/04/20 08:16:01;;;;;;;6.23;5.80;;;13.10;81.10;;;;;;4934168;29;20659;-72
2022/04/20 08:18:27;;;;;;;6.47;6.07;;;13.40;80.80;;;;;;4933604;29;20305;-69
2022/04/20 08:20:53;;;;;;;6.47;6.00;;;13.50;79.40;;;;;;4932261;29;20285;-69
2022/04/20 08:23:20;;;;;;;7.00;6.60;;;13.90;77.10;;;;;;4934026;29;20178;-69
2022/04/20 08:25:46;;;;;;;7.07;6.53;;;14.20;75.00;;;;;;4934183;29;20824;-70
2022/04/20 08:28:12;;;;;;;6.43;6.10;;;14.10;74.70;;;;;;4933973;29;20650;-70
2022/04/20 08:30:40;;;;;;;7.27;6.87;;;14.00;74.00;;;;;;4934276;29;20617;-70
2022/04/20 08:33:08;;;;;;;7.30;6.80;;;13.40;74.00;;;;;;4934021;29;20212;-69
2022/04/20 08:35:34;;;;;;;7.20;6.63;;;13.40;74.30;;;;;;4933780;29;20526;-70
2022/04/20 08:38:01;;;;;;;9.80;6.83;;;13.30;74.10;;;;;;4948363;29;20237;-68
2022/04/20 08:40:28;;;;;;;6.93;6.03;;;13.30;74.10;;;;;;4933907;29;20186;-69
2022/04/20 08:42:54;;;;;;;6.97;6.57;;;13.40;73.90;;;;;;4933927;29;20210;-69
2022/04/20 08:45:20;;;;;;;6.77;6.37;;;13.60;73.20;;;;;;4934271;29;20217;-70
2022/04/20 08:47:49;;;;;;;7.40;6.77;;;13.50;73.20;;;;;;4933336;29;20191;-71
2022/04/20 08:50:15;;;;;;;7.60;7.20;;;13.80;73.30;;;;;;4932355;29;20194;-70
2022/04/20 08:52:46;;;;;;;8.17;7.67;;;14.40;71.60;;;;;;4932379;29;20678;-70
2022/04/20 08:55:15;;;;;;;6.63;6.23;;;14.30;72.70;;;;;;4926633;29;20186;-70
2022/04/20 08:57:43;;;;;;;6.37;5.97;;;14.30;69.40;;;;;;4932939;29;20624;-70
2022/04/20 09:00:13;;;;;;;7.13;6.63;;;14.50;70.10;;;;;;4932604;29;20530;-69
2022/04/20 09:02:39;;;;;;;6.63;6.23;;;14.50;70.40;;;;;;4933616;29;20194;-70
2022/04/20 09:05:06;;;;;;;6.50;6.10;;;14.30;70.10;;;;;;4933378;29;20188;-70
2022/04/20 09:07:32;;;;;;;6.70;6.10;;;14.20;69.60;;;;;;4931941;29;20189;-70
2022/04/20 09:09:58;;;;;;;4.80;4.50;;;15.00;68.90;;;;;;4933443;29;20636;-70
2022/04/20 09:12:26;;;;;;;5.47;5.17;;;15.30;63.60;;;;;;4936545;29;20253;-70
2022/04/20 09:14:53;;;;;;;5.43;5.03;;;15.00;62.70;;;;;;4958665;23;20677;-69
2022/04/20 09:17:20;;;;;;;5.70;5.30;;;14.60;64.20;;;;;;4955978;28;20223;-69
2022/04/20 09:19:48;;;;;;;4.83;4.53;;;14.30;63.10;;;;;;4956434;29;20197;-68
2022/04/20 09:22:30;;;;;;;5.37;4.87;;;14.40;62.60;;;;;;4956299;28;20178;-69
2022/04/20 09:25:08;;;;;;;5.07;4.83;;;14.60;62.50;;;;;;4967109;28;20233;-70
2022/04/20 09:27:41;;;;;;;4.70;4.40;;;14.70;63.70;;;;;;4935637;29;20197;-70
2022/04/20 09:30:13;;;;;;;5.17;4.87;;;14.90;63.00;;;;;;4937279;29;20639;-70
2022/04/20 09:32:44;;;;;;;5.17;4.87;;;14.70;64.60;;;;;;4936050;29;20559;-70
2022/04/20 09:35:13;;;;;;;6.00;5.70;;;15.20;63.40;;;;;;4936004;29;20217;-70
2022/04/20 09:37:40;;;;;;;6.07;5.40;;;14.90;59.90;;;;;;4935413;29;20206;-71
2022/04/20 09:40:12;;;;;;;6.83;6.40;;;14.90;59.50;;;;;;4929309;29;20271;-72
2022/04/20 09:43:04;;;;;;;6.03;5.73;;;15.00;58.10;;;;;;4919747;29;20207;-73
2022/04/20 09:45:30;;;;;;;5.60;5.30;;;15.10;57.90;;;;;;4933743;29;20211;-73
2022/04/20 09:50:46;;;;;;;5.20;4.90;;;15.60;56.90;;;;;;4936991;29;20538;-73
2022/04/20 09:53:14;;;;;;;5.07;4.80;;;15.30;56.70;;;;;;4937144;29;20194;-73
2022/04/20 09:55:41;;;;;;;5.90;5.40;;;15.10;56.10;;;;;;4936344;29;20558;-73
2022/04/20 09:58:18;;;;;;;5.23;4.80;;;15.40;56.30;;;;;;4930371;29;20259;-73
2022/04/20 10:00:54;;;;;;;7.87;4.83;;;15.50;54.10;;;;;;4917399;29;20178;-73
2022/04/20 10:03:24;;;;;;;4.63;4.33;;;15.90;54.50;;;;;;4916361;29;20724;-72
2022/04/20 10:05:51;;;;;;;5.17;4.87;;;16.00;53.90;;;;;;4916043;29;20249;-73
2022/04/20 10:08:21;;;;;;;5.53;4.30;;;15.90;54.90;;;;;;4915632;29;20330;-72
2022/04/20 10:10:52;;;;;;;6.30;5.90;;;16.20;53.60;;;;;;4917180;29;20796;-73
2022/04/20 10:13:18;;;;;;;6.57;6.17;;;16.40;53.10;;;;;;4917321;29;20194;-73
2022/04/20 10:18:33;;;;;;;5.47;5.17;;;17.20;50.50;;;;;;4916693;29;20219;-74
2022/04/20 10:21:01;;;;;;;5.30;4.93;;;17.40;50.20;;;;;;4915989;29;20328;-73
2022/04/20 10:23:31;;;;;;;6.37;5.87;;;17.20;50.90;;;;;;4929579;29;20245;-71
2022/04/20 10:25:59;;;;;;;5.00;4.70;;;17.20;51.40;;;;;;4933478;29;20691;-71
2022/04/20 10:28:27;;;;;;;5.40;4.90;;;17.60;49.70;;;;;;4935798;29;20650;-71
2022/04/20 10:31:01;;;;;;;5.77;5.47;;;17.40;49.40;;;;;;4935298;29;20714;-72
2022/04/20 10:33:31;;;;;;;5.30;5.00;;;17.70;51.40;;;;;;4954390;29;20191;-73
2022/04/20 10:35:57;;;;;;;5.63;5.27;;;17.50;50.80;;;;;;4937055;29;20656;-72
2022/04/20 10:38:24;;;;;;;5.00;4.67;;;18.00;50.00;;;;;;4935139;29;20218;-72
2022/04/20 10:41:06;;;;;;;5.37;4.90;;;18.10;49.10;;;;;;4938161;29;20217;-72
2022/04/20 10:43:34;;;;;;;5.13;4.83;;;18.50;48.40;;;;;;4937360;29;20519;-72
2022/04/20 10:46:08;;;;;;;5.27;4.77;;;19.00;48.20;;;;;;4936417;29;20198;-72
2022/04/20 10:48:47;;;;;;;4.63;4.33;;;18.40;48.70;;;;;;4935961;29;20621;-73
2022/04/20 10:51:17;;;;;;;5.50;5.20;;;17.60;47.20;;;;;;4934868;29;20182;-73
2022/04/20 10:53:50;;;;;;;5.50;5.10;;;17.50;47.60;;;;;;4935968;29;20658;-72
2022/04/20 10:56:19;;;;;;;5.17;4.53;;;18.30;47.40;;;;;;4936211;29;20583;-73
2022/04/20 10:59:12;;;;;;;5.30;5.00;;;18.10;45.20;;;;;;4935455;29;20214;-73
2022/04/20 11:02:11;;;;;;;5.50;5.20;;;17.30;46.00;;;;;;4933889;29;20194;-73
2022/04/20 11:04:46;;;;;;;5.70;5.40;;;17.40;46.40;;;;;;4914360;29;20250;-73
2022/04/20 11:07:15;;;;;;;5.10;4.80;;;17.90;47.00;;;;;;4935659;29;20192;-73
2022/04/20 11:09:50;;;;;;;5.40;5.10;;;18.60;45.70;;;;;;4934821;29;20189;-73
2022/04/20 11:21:04;;;;;;;4.80;4.50;;;18.80;44.30;;;;;;4935612;29;20189;-73
2022/04/20 11:24:02;;;;;;;5.20;4.90;;;18.90;44.60;;;;;;4935469;29;20619;-72
2022/04/20 11:26:30;;;;;;;5.47;5.17;;;18.60;44.40;;;;;;4935813;29;20690;-72
2022/04/20 11:28:59;;;;;;;5.70;5.30;;;18.80;46.00;;;;;;4933778;29;20182;-72
2022/04/20 11:31:25;;;;;;;5.27;4.97;;;19.00;44.80;;;;;;4931100;29;20190;-73
2022/04/20 11:33:53;;;;;;;6.97;6.47;;;19.50;44.80;;;;;;4934715;29;20194;-72
2022/04/20 11:36:19;;;;;;;6.90;6.57;;;20.10;42.90;;;;;;4930564;29;20213;-72
2022/04/20 11:38:47;;;;;;;7.20;6.80;;;19.70;44.30;;;;;;4915282;29;20239;-72
2022/04/20 11:41:14;;;;;;;4.87;4.67;;;19.10;43.40;;;;;;4916111;29;20187;-73
2022/04/20 11:43:40;;;;;;;6.17;5.63;;;18.60;44.80;;;;;;4916074;29;20179;-74
2022/04/20 11:46:09;;;;;;;7.40;6.77;;;18.70;43.50;;;;;;4916015;29;20207;-73
2022/04/20 11:48:36;;;;;;;6.43;6.03;;;18.80;43.10;;;;;;4918925;29;20216;-72
2022/04/20 11:51:07;;;;;;;5.90;5.53;;;18.60;43.40;;;;;;4934990;29;20186;-73
2022/04/20 11:53:38;;;;;;;8.37;7.87;;;19.10;44.00;;;;;;4933484;29;20186;-72
2022/04/20 11:56:09;;;;;;;8.83;8.37;;;19.20;42.10;;;;;;4933612;29;20234;-72
2022/04/20 11:58:37;;;;;;;8.63;8.20;;;19.40;41.30;;;;;;4934336;29;20629;-72
2022/04/20 12:01:04;;;;;;;10.50;10.00;;;19.60;41.70;;;;;;4932963;29;20185;-72
2022/04/20 12:03:37;;;;;;;10.87;10.27;;;19.80;41.50;;;;;;4934547;29;20186;-72
2022/04/20 12:06:05;;;;;;;9.77;9.27;;;20.00;40.50;;;;;;4934499;29;20293;-72
2022/04/20 12:08:32;;;;;;;11.13;10.53;;;19.70;40.30;;;;;;4932799;29;20187;-73
2022/04/20 12:11:02;;;;;;;10.55;9.95;;;19.90;40.50;;;;;;4927814;29;20234;-73
2022/04/20 12:13:29;;;;;;;7.93;7.53;;;21.10;39.80;;;;;;4914768;29;20266;-73
2022/04/20 12:16:06;;;;;;;5.20;4.90;;;22.00;37.00;;;;;;4933029;29;20215;-73
2022/04/20 12:18:36;;;;;;;6.33;5.00;;;22.00;36.00;;;;;;4915624;29;20218;-73
2022/04/20 12:21:07;;;;;;;4.63;4.22;;;21.70;36.60;;;;;;4916002;29;20183;-73
2022/04/20 12:23:37;;;;;;;4.32;3.65;;;22.30;35.20;;;;;;4923281;29;20182;-73
2022/04/20 12:26:05;;;;;;;5.43;4.55;;;21.80;33.70;;;;;;4928720;29;20202;-72
2022/04/20 12:28:44;;;;;;;5.55;5.25;;;21.20;35.40;;;;;;4932521;29;20187;-73
2022/04/20 12:31:12;;;;;;;4.90;4.60;;;21.30;36.90;;;;;;4934072;29;20257;-72
2022/04/20 12:33:41;;;;;;;4.95;4.65;;;21.70;35.60;;;;;;4932693;29;20197;-72
2022/04/20 12:36:11;;;;;;;4.47;4.20;;;21.50;36.20;;;;;;4932733;29;20206;-72
2022/04/20 12:38:53;;;;;;;4.80;4.60;;;22.10;34.50;;;;;;4932287;29;20232;-72
2022/04/20 12:41:45;;;;;;;4.68;4.47;;;21.60;35.50;;;;;;4932845;29;20197;-72
2022/04/20 12:44:39;;;;;;;5.90;5.47;;;21.30;36.40;;;;;;4933851;29;20178;-72
2022/04/20 12:47:08;;;;;;;5.80;5.50;;;21.00;35.50;;;;;;4926036;29;20194;-69
2022/04/20 12:49:34;;;;;;;5.63;5.18;;;21.20;36.60;;;;;;4918804;29;20187;-69
2022/04/20 12:52:14;;;;;;;4.57;4.38;;;22.00;35.60;;;;;;4932448;29;20189;-69
2022/04/20 12:54:51;;;;;;;4.72;4.25;;;22.30;34.10;;;;;;4933479;29;20186;-69
2022/04/20 13:02:58;;;;;;;4.60;4.28;;;22.20;33.60;;;;;;4933740;29;20198;-70
2022/04/20 13:05:24;;;;;;;5.45;4.93;;;23.00;33.40;;;;;;4920878;29;20718;-70
2022/04/20 13:07:50;;;;;;;5.10;4.80;;;23.50;32.30;;;;;;4913900;29;20526;-70
2022/04/20 13:10:17;;;;;;;4.32;4.07;;;22.90;32.30;;;;;;4914456;29;20205;-70
2022/04/20 13:12:53;;;;;;;4.80;4.40;;;22.60;31.70;;;;;;4913228;29;20182;-70
2022/04/20 13:15:20;;;;;;;5.20;4.45;;;22.90;31.90;;;;;;4914151;29;20706;-69
2022/04/20 13:17:47;;;;;;;5.28;4.80;;;22.10;32.00;;;;;;4914068;29;20202;-70
2022/04/20 13:20:13;;;;;;;4.88;4.57;;;21.30;34.10;;;;;;4914541;29;20229;-70
2022/04/20 13:22:39;;;;;;;5.57;5.28;;;21.40;34.50;;;;;;4914560;29;20179;-70
2022/04/20 13:27:54;;;;;;;5.50;5.20;;;22.30;34.70;;;;;;4914298;29;20191;-70
2022/04/20 13:30:27;;;;;;;4.95;4.55;;;23.10;33.00;;;;;;4914831;29;20322;-70
2022/04/20 13:32:55;;;;;;;5.07;4.78;;;22.90;33.70;;;;;;4914608;29;20568;-70
2022/04/20 13:35:21;;;;;;;6.88;6.47;;;21.70;35.20;;;;;;4914346;29;20294;-69
2022/04/20 13:37:48;;;;;;;5.93;5.60;;;21.70;35.70;;;;;;4913619;29;20207;-70
2022/04/20 13:40:14;;;;;;;4.68;4.20;;;22.10;34.30;;;;;;4914467;29;20188;-69
2022/04/20 13:42:40;;;;;;;4.78;4.38;;;22.50;33.20;;;;;;4932744;29;20186;-69
2022/04/20 13:45:06;;;;;;;5.55;5.05;;;22.20;33.50;;;;;;4931735;29;20199;-69
2022/04/20 13:47:33;;;;;;;5.72;5.25;;;22.00;33.30;;;;;;4932720;29;20190;-70
2022/04/20 13:50:00;;;;;;;5.13;4.40;;;22.70;33.30;;;;;;4933271;29;20273;-70
2022/04/20 13:52:27;;;;;;;5.13;4.72;;;22.30;32.60;;;;;;4932992;29;20902;-69
2022/04/20 13:54:54;;;;;;;6.10;5.78;;;22.00;34.00;;;;;;4933284;29;20317;-69
2022/04/20 13:57:24;;;;;;;5.13;4.82;;;21.70;34.50;;;;;;4942332;29;20241;-69
2022/04/20 13:59:49;;;;;;;5.65;5.28;;;21.80;34.30;;;;;;4946429;29;20218;-69
2022/04/20 14:02:15;;;;;;;5.47;5.18;;;21.90;34.80;;;;;;4937311;29;20210;-70
2022/04/20 14:04:41;;;;;;;5.82;5.32;;;22.30;34.10;;;;;;4937097;29;20562;-69
2022/04/20 14:07:07;;;;;;;6.85;6.25;;;23.00;33.40;;;;;;4936212;29;20188;-68
2022/04/20 14:09:33;;;;;;;8.05;7.40;;;22.10;34.90;;;;;;4935776;29;20205;-70
2022/04/20 14:12:00;;;;;;;6.28;5.78;;;21.50;36.80;;;;;;4936700;29;20178;-71
2022/04/20 14:14:26;;;;;;;5.45;5.15;;;22.40;35.10;;;;;;4936451;29;20238;-69
2022/04/20 14:16:52;;;;;;;5.78;5.38;;;22.30;35.00;;;;;;4936304;29;20201;-69
2022/04/20 14:19:18;;;;;;;6.25;5.85;;;22.30;34.10;;;;;;4936731;29;20186;-69
2022/04/20 14:21:44;;;;;;;6.13;5.78;;;22.40;34.40;;;;;;4936671;29;20186;-69
2022/04/20 14:24:10;;;;;;;7.68;5.05;;;22.50;33.90;;;;;;4936455;29;20182;-69
2022/04/20 14:32:12;;;;;;;5.43;5.03;;;24.20;32.20;;;;;;4936376;29;20533;-70
2022/04/20 14:34:40;;;;;;;6.22;5.45;;;24.10;32.50;;;;;;4936266;29;20186;-70
2022/04/20 14:37:06;;;;;;;5.38;5.07;;;24.60;31.80;;;;;;4935613;29;20217;-71
2022/04/20 14:39:33;;;;;;;5.03;4.80;;;24.30;30.80;;;;;;4936129;29;20187;-70
2022/04/20 14:41:59;;;;;;;5.63;5.32;;;24.00;31.10;;;;;;4922995;29;20210;-70
2022/04/20 14:44:26;;;;;;;5.65;5.35;;;24.10;31.70;;;;;;4916864;29;20237;-69
2022/04/20 14:46:52;;;;;;;6.22;5.90;;;24.30;31.80;;;;;;4916800;29;20644;-69
2022/04/20 14:49:18;;;;;;;5.80;5.32;;;24.00;32.50;;;;;;4917072;29;20191;-71
2022/04/20 14:51:46;;;;;;;5.95;5.65;;;23.30;33.60;;;;;;4917452;29;20231;-73
2022/04/20 14:54:15;;;;;;;5.80;5.30;;;23.30;32.80;;;;;;4921109;29;20225;-71
2022/04/20 14:56:42;;;;;;;5.45;5.00;;;23.60;33.70;;;;;;4934743;29;20698;-71
2022/04/20 14:59:08;;;;;;;4.75;4.55;;;23.30;33.20;;;;;;4935032;29;20195;-72
2022/04/20 15:01:37;;;;;;;5.10;4.80;;;22.80;34.70;;;;;;4934687;29;20179;-71
2022/04/20 15:04:03;;;;;;;6.65;6.35;;;22.60;34.90;;;;;;4935913;29;20182;-71
2022/04/20 15:06:30;;;;;;;5.90;5.60;;;22.00;36.30;;;;;;4934832;29;20550;-72
2022/04/20 15:08:57;;;;;;;6.30;5.90;;;23.10;35.10;;;;;;4935063;29;20190;-71
2022/04/20 15:11:23;;;;;;;7.78;4.95;;;23.50;33.80;;;;;;4935357;29;20194;-70
2022/04/20 15:13:49;;;;;;;5.95;5.57;;;24.00;33.00;;;;;;4934909;29;20670;-73
2022/04/20 15:16:18;;;;;;;5.35;5.00;;;23.30;33.40;;;;;;4956161;23;20236;-69
2022/04/20 15:18:44;;;;;;;5.75;5.45;;;22.90;34.40;;;;;;4934536;29;20218;-68
2022/04/20 15:21:10;;;;;;;5.78;5.38;;;22.50;34.50;;;;;;4935479;29;20277;-67
2022/04/20 15:23:38;;;;;;;6.07;5.68;;;22.40;34.30;;;;;;4935381;29;20261;-68
2022/04/20 15:26:04;;;;;;;6.30;5.20;;;22.50;34.40;;;;;;4935326;29;20201;-68
2022/04/20 15:28:30;;;;;;;5.43;5.03;;;23.80;32.70;;;;;;4935135;29;20201;-68
2022/04/20 15:30:57;;;;;;;5.57;5.07;;;23.90;30.80;;;;;;4935396;29;20186;-68
2022/04/20 15:33:23;;;;;;;5.50;5.20;;;23.30;32.70;;;;;;4935085;29;20190;-69
2022/04/20 15:35:50;;;;;;;6.13;5.72;;;23.30;32.20;;;;;;4935486;29;20198;-68
2022/04/20 15:38:16;;;;;;;6.55;6.20;;;23.30;31.30;;;;;;4934625;29;20241;-68
2022/04/20 15:40:43;;;;;;;7.30;6.80;;;23.80;31.00;;;;;;4935749;29;20185;-68
2022/04/20 15:43:10;;;;;;;5.78;5.30;;;23.60;31.00;;;;;;4934934;29;20186;-68
2022/04/20 15:45:37;;;;;;;6.00;5.63;;;23.20;31.70;;;;;;4934989;29;20198;-68
2022/04/20 15:48:05;;;;;;;5.70;5.40;;;23.00;32.40;;;;;;4934521;29;20194;-68
2022/04/20 15:50:31;;;;;;;5.20;4.70;;;22.70;32.30;;;;;;4934838;29;20189;-68
2022/04/20 15:52:57;;;;;;;5.30;5.00;;;22.30;32.70;;;;;;4934726;29;20183;-68
2022/04/20 16:00:52;;;;;;;5.13;4.93;;;22.40;32.60;;;;;;4934568;29;20214;-68
2022/04/20 16:03:18;;;;;;;4.97;4.75;;;21.40;32.40;;;;;;4934773;29;20688;-68
2022/04/20 16:05:44;;;;;;;5.22;4.95;;;21.10;33.00;;;;;;4949458;29;20590;-68
2022/04/20 16:08:11;;;;;;;5.13;4.78;;;21.80;33.00;;;;;;4933763;29;20565;-68
2022/04/20 16:10:36;;;;;;;5.82;5.47;;;22.90;31.90;;;;;;4934716;29;20186;-68
2022/04/20 16:13:03;;;;;;;6.40;6.00;;;24.10;30.30;;;;;;4934603;29;20698;-68
2022/04/20 16:15:28;;;;;;;6.03;5.53;;;23.30;30.60;;;;;;4934874;29;20694;-67
2022/04/20 16:17:56;;;;;;;6.93;6.45;;;22.70;31.90;;;;;;4933886;29;20221;-68
2022/04/20 16:20:22;;;;;;;6.70;6.30;;;22.80;31.40;;;;;;4932712;29;20229;-68
2022/04/20 16:22:50;;;;;;;6.93;6.35;;;23.00;30.90;;;;;;4932980;29;20178;-69
2022/04/20 16:25:16;;;;;;;5.93;5.63;;;22.50;30.50;;;;;;4932774;29;20209;-68
2022/04/20 16:27:42;;;;;;;5.38;5.18;;;22.00;31.80;;;;;;4933775;29;20182;-69
2022/04/20 16:30:08;;;;;;;5.75;5.50;;;21.60;32.00;;;;;;4930245;29;20226;-69
2022/04/20 16:32:34;;;;;;;6.15;5.13;;;21.40;32.40;;;;;;4919179;29;20516;-69
2022/04/20 16:35:03;;;;;;;5.53;5.03;;;21.20;33.70;;;;;;4933664;29;20265;-69
2022/04/20 16:37:33;;;;;;;6.15;5.78;;;21.00;34.20;;;;;;4933889;29;20221;-69
2022/04/20 16:39:59;;;;;;;6.33;5.93;;;20.80;34.40;;;;;;4934800;29;20190;-69